sensor_id;sensor_type;location;lat;lon;timestamp;temperature;humidity
20200;DHT22;36284;37.236;-121.934;2023-08-06T00:02:10;32.10;99.90
20200;DHT22;36284;37.236;-121.934;2023-08-06T00:04:37;32.00;99.90
20200;DHT22;36284;37.236;-121.934;2023-08-06T00:07:04;32.00;99.90
20200;DHT22;36284;37.236;-121.934;2023-08-06T00:09:31;32.20;99.90
20200;DHT22;36284;37.236;-121.934;2023-08-06T00:11:58;31.80;99.90
20200;DHT22;36284;37.236;-121.934;2023-08-06T00:14:25;31.90;99.90
20200;DHT22;36284;37.236;-121.934;2023-08-06T00:16:52;31.90;99.90
20200;DHT22;36284;37.236;-121.934;2023-08-06T00:19:19;31.70;99.90
20200;DHT22;36284;37.236;-121.934;2023-08-06T00:21:46;31.90;99.90
20200;DHT22;36284;37.236;-121.934;2023-08-06T00:24:13;31.80;99.90
20200;DHT22;36284;37.236;-121.934;2023-08-06T00:26:40;31.70;99.90
20200;DHT22;36284;37.236;-121.934;2023-08-06T00:29:07;31.30;99.90
20200;DHT22;36284;37.236;-121.934;2023-08-06T00:31:34;31.40;99.90
20200;DHT22;36284;37.236;-121.934;2023-08-06T00:34:01;31.10;99.90
20200;DHT22;36284;37.236;-121.934;2023-08-06T00:36:28;30.70;99.90
20200;DHT22;36284;37.236;-121.934;2023-08-06T00:38:55;30.70;99.90
20200;DHT22;36284;37.236;-121.934;2023-08-06T00:41:22;30.90;99.90
20200;DHT22;36284;37.236;-121.934;2023-08-06T00:46:25;31.00;99.90
20200;DHT22;36284;37.236;-121.934;2023-08-06T00:51:28;30.80;99.90
20200;DHT22;36284;37.236;-121.934;2023-08-06T00:53:55;30.30;99.90
20200;DHT22;36284;37.236;-121.934;2023-08-06T00:56:23;30.40;99.90
20200;DHT22;36284;37.236;-121.934;2023-08-06T00:58:51;30.40;99.90
20200;DHT22;36284;37.236;-121.934;2023-08-06T01:01:18;30.30;99.90
20200;DHT22;36284;37.236;-121.934;2023-08-06T01:03:46;30.50;99.90
20200;DHT22;36284;37.236;-121.934;2023-08-06T01:06:13;30.30;99.90
20200;DHT22;36284;37.236;-121.934;2023-08-06T01:08:56;30.00;99.90
20200;DHT22;36284;37.236;-121.934;2023-08-06T01:17:05;29.30;99.90
20200;DHT22;36284;37.236;-121.934;2023-08-06T01:19:32;29.40;99.90
20200;DHT22;36284;37.236;-121.934;2023-08-06T01:21:59;29.30;99.90
20200;DHT22;36284;37.236;-121.934;2023-08-06T01:24:26;29.10;99.90
20200;DHT22;36284;37.236;-121.934;2023-08-06T01:27:06;29.00;99.90
20200;DHT22;36284;37.236;-121.934;2023-08-06T01:29:44;29.00;99.90
20200;DHT22;36284;37.236;-121.934;2023-08-06T01:32:14;28.90;99.90
20200;DHT22;36284;37.236;-121.934;2023-08-06T01:34:44;28.80;99.90
20200;DHT22;36284;37.236;-121.934;2023-08-06T01:37:12;28.70;99.90
20200;DHT22;36284;37.236;-121.934;2023-08-06T01:39:42;28.60;99.90
20200;DHT22;36284;37.236;-121.934;2023-08-06T01:42:10;28.50;99.90
20200;DHT22;36284;37.236;-121.934;2023-08-06T01:44:38;28.20;99.90
20200;DHT22;36284;37.236;-121.934;2023-08-06T01:47:05;28.00;99.90
20200;DHT22;36284;37.236;-121.934;2023-08-06T01:49:32;27.90;99.90
20200;DHT22;36284;37.236;-121.934;2023-08-06T01:51:59;27.80;99.90
20200;DHT22;36284;37.236;-121.934;2023-08-06T01:54:27;27.70;99.90
20200;DHT22;36284;37.236;-121.934;2023-08-06T01:56:54;27.50;99.90
20200;DHT22;36284;37.236;-121.934;2023-08-06T01:59:21;27.30;99.90
20200;DHT22;36284;37.236;-121.934;2023-08-06T02:01:48;27.40;99.90
20200;DHT22;36284;37.236;-121.934;2023-08-06T02:04:15;27.30;99.90
20200;DHT22;36284;37.236;-121.934;2023-08-06T02:06:43;27.30;99.90
20200;DHT22;36284;37.236;-121.934;2023-08-06T02:09:10;27.10;99.90
20200;DHT22;36284;37.236;-121.934;2023-08-06T02:11:36;27.00;99.90
20200;DHT22;36284;37.236;-121.934;2023-08-06T02:14:04;26.90;99.90
20200;DHT22;36284;37.236;-121.934;2023-08-06T02:16:31;27.00;99.90
20200;DHT22;36284;37.236;-121.934;2023-08-06T02:18:58;26.90;99.90
20200;DHT22;36284;37.236;-121.934;2023-08-06T02:21:24;26.80;99.90
20200;DHT22;36284;37.236;-121.934;2023-08-06T02:23:51;26.70;99.90
20200;DHT22;36284;37.236;-121.934;2023-08-06T02:26:18;26.60;99.90
20200;DHT22;36284;37.236;-121.934;2023-08-06T02:28:45;26.50;99.90
20200;DHT22;36284;37.236;-121.934;2023-08-06T02:31:12;26.00;99.90
20200;DHT22;36284;37.236;-121.934;2023-08-06T02:33:39;26.00;99.90
20200;DHT22;36284;37.236;-121.934;2023-08-06T02:36:10;25.90;99.90
20200;DHT22;36284;37.236;-121.934;2023-08-06T02:38:37;25.90;99.90
20200;DHT22;36284;37.236;-121.934;2023-08-06T02:41:04;25.90;99.90
20200;DHT22;36284;37.236;-121.934;2023-08-06T02:43:32;25.90;99.90
20200;DHT22;36284;37.236;-121.934;2023-08-06T02:45:59;25.80;99.90
20200;DHT22;36284;37.236;-121.934;2023-08-06T02:48:27;25.70;99.90
20200;DHT22;36284;37.236;-121.934;2023-08-06T02:50:57;25.50;99.90
20200;DHT22;36284;37.236;-121.934;2023-08-06T02:53:25;25.40;99.90
20200;DHT22;36284;37.236;-121.934;2023-08-06T02:55:53;25.30;99.90
20200;DHT22;36284;37.236;-121.934;2023-08-06T02:58:20;25.00;99.90
20200;DHT22;36284;37.236;-121.934;2023-08-06T03:01:04;24.90;99.90
20200;DHT22;36284;37.236;-121.934;2023-08-06T03:03:32;24.70;99.90
20200;DHT22;36284;37.236;-121.934;2023-08-06T03:06:00;24.40;99.90
20200;DHT22;36284;37.236;-121.934;2023-08-06T03:08:27;24.30;99.90
20200;DHT22;36284;37.236;-121.934;2023-08-06T03:10:54;24.10;99.90
20200;DHT22;36284;37.236;-121.934;2023-08-06T03:13:21;23.90;99.90
20200;DHT22;36284;37.236;-121.934;2023-08-06T03:15:53;23.80;99.90
20200;DHT22;36284;37.236;-121.934;2023-08-06T03:18:20;23.70;99.90
20200;DHT22;36284;37.236;-121.934;2023-08-06T03:20:48;23.40;99.90
20200;DHT22;36284;37.236;-121.934;2023-08-06T03:23:15;23.20;99.90
20200;DHT22;36284;37.236;-121.934;2023-08-06T03:25:42;23.10;99.90
20200;DHT22;36284;37.236;-121.934;2023-08-06T03:28:09;23.00;99.90
20200;DHT22;36284;37.236;-121.934;2023-08-06T03:30:37;22.80;99.90
20200;DHT22;36284;37.236;-121.934;2023-08-06T03:33:05;22.70;99.90
20200;DHT22;36284;37.236;-121.934;2023-08-06T03:35:32;22.60;99.90
20200;DHT22;36284;37.236;-121.934;2023-08-06T03:37:59;22.50;99.90
20200;DHT22;36284;37.236;-121.934;2023-08-06T03:40:26;22.50;99.90
20200;DHT22;36284;37.236;-121.934;2023-08-06T03:42:54;22.40;99.90
20200;DHT22;36284;37.236;-121.934;2023-08-06T03:45:20;22.30;99.90
20200;DHT22;36284;37.236;-121.934;2023-08-06T03:47:48;22.20;99.90
20200;DHT22;36284;37.236;-121.934;2023-08-06T03:50:15;22.10;99.90
20200;DHT22;36284;37.236;-121.934;2023-08-06T03:52:43;21.90;99.90
20200;DHT22;36284;37.236;-121.934;2023-08-06T03:55:11;21.80;99.90
20200;DHT22;36284;37.236;-121.934;2023-08-06T03:57:38;21.80;99.90
20200;DHT22;36284;37.236;-121.934;2023-08-06T04:00:06;21.70;99.90
20200;DHT22;36284;37.236;-121.934;2023-08-06T04:02:33;21.60;99.90
20200;DHT22;36284;37.236;-121.934;2023-08-06T04:05:01;21.60;99.90
20200;DHT22;36284;37.236;-121.934;2023-08-06T04:07:28;21.50;99.90
20200;DHT22;36284;37.236;-121.934;2023-08-06T04:09:57;21.50;99.90
20200;DHT22;36284;37.236;-121.934;2023-08-06T04:12:25;21.40;99.90
20200;DHT22;36284;37.236;-121.934;2023-08-06T04:14:52;21.30;99.90
20200;DHT22;36284;37.236;-121.934;2023-08-06T04:17:20;21.20;99.90
20200;DHT22;36284;37.236;-121.934;2023-08-06T04:19:52;21.10;99.90
20200;DHT22;36284;37.236;-121.934;2023-08-06T04:22:21;21.00;99.90
20200;DHT22;36284;37.236;-121.934;2023-08-06T04:24:48;20.90;99.90
20200;DHT22;36284;37.236;-121.934;2023-08-06T04:27:17;20.80;99.90
20200;DHT22;36284;37.236;-121.934;2023-08-06T04:29:45;20.70;99.90
20200;DHT22;36284;37.236;-121.934;2023-08-06T04:32:12;20.60;99.90
20200;DHT22;36284;37.236;-121.934;2023-08-06T04:34:39;20.50;99.90
20200;DHT22;36284;37.236;-121.934;2023-08-06T04:37:06;20.30;99.90
20200;DHT22;36284;37.236;-121.934;2023-08-06T04:39:34;20.10;99.90
20200;DHT22;36284;37.236;-121.934;2023-08-06T04:42:00;20.10;99.90
20200;DHT22;36284;37.236;-121.934;2023-08-06T04:44:27;20.00;99.90
20200;DHT22;36284;37.236;-121.934;2023-08-06T04:46:54;19.90;99.90
20200;DHT22;36284;37.236;-121.934;2023-08-06T04:49:22;19.90;99.90
20200;DHT22;36284;37.236;-121.934;2023-08-06T04:51:49;19.80;99.90
20200;DHT22;36284;37.236;-121.934;2023-08-06T04:54:16;19.70;99.90
20200;DHT22;36284;37.236;-121.934;2023-08-06T04:56:42;19.60;99.90
20200;DHT22;36284;37.236;-121.934;2023-08-06T04:59:09;19.60;99.90
20200;DHT22;36284;37.236;-121.934;2023-08-06T05:01:36;19.60;99.90
20200;DHT22;36284;37.236;-121.934;2023-08-06T05:04:03;19.50;99.90
20200;DHT22;36284;37.236;-121.934;2023-08-06T05:06:30;19.50;99.90
20200;DHT22;36284;37.236;-121.934;2023-08-06T05:08:57;19.40;99.90
20200;DHT22;36284;37.236;-121.934;2023-08-06T05:11:25;19.30;99.90
20200;DHT22;36284;37.236;-121.934;2023-08-06T05:13:52;19.20;99.90
20200;DHT22;36284;37.236;-121.934;2023-08-06T05:16:19;19.30;99.90
20200;DHT22;36284;37.236;-121.934;2023-08-06T05:18:46;19.10;99.90
20200;DHT22;36284;37.236;-121.934;2023-08-06T05:21:13;19.00;99.90
20200;DHT22;36284;37.236;-121.934;2023-08-06T05:23:40;19.00;99.90
20200;DHT22;36284;37.236;-121.934;2023-08-06T05:26:07;18.90;99.90
20200;DHT22;36284;37.236;-121.934;2023-08-06T05:28:34;18.90;99.90
20200;DHT22;36284;37.236;-121.934;2023-08-06T05:31:04;19.00;99.90
20200;DHT22;36284;37.236;-121.934;2023-08-06T05:33:31;18.80;99.90
20200;DHT22;36284;37.236;-121.934;2023-08-06T05:35:58;18.80;99.90
20200;DHT22;36284;37.236;-121.934;2023-08-06T05:38:25;18.60;99.90
20200;DHT22;36284;37.236;-121.934;2023-08-06T05:40:52;18.60;99.90
20200;DHT22;36284;37.236;-121.934;2023-08-06T05:43:19;18.60;99.90
20200;DHT22;36284;37.236;-121.934;2023-08-06T05:45:48;18.50;99.90
20200;DHT22;36284;37.236;-121.934;2023-08-06T05:48:16;18.60;99.90
20200;DHT22;36284;37.236;-121.934;2023-08-06T05:50:43;18.50;99.90
20200;DHT22;36284;37.236;-121.934;2023-08-06T05:53:10;18.50;99.90
20200;DHT22;36284;37.236;-121.934;2023-08-06T05:55:36;18.50;99.90
20200;DHT22;36284;37.236;-121.934;2023-08-06T05:58:04;18.40;99.90
20200;DHT22;36284;37.236;-121.934;2023-08-06T06:00:31;18.40;99.90
20200;DHT22;36284;37.236;-121.934;2023-08-06T06:02:58;18.30;99.90
20200;DHT22;36284;37.236;-121.934;2023-08-06T06:05:25;18.30;99.90
20200;DHT22;36284;37.236;-121.934;2023-08-06T06:07:52;18.30;99.90
20200;DHT22;36284;37.236;-121.934;2023-08-06T06:10:19;18.30;99.90
20200;DHT22;36284;37.236;-121.934;2023-08-06T06:12:46;18.20;99.90
20200;DHT22;36284;37.236;-121.934;2023-08-06T06:15:13;18.10;99.90
20200;DHT22;36284;37.236;-121.934;2023-08-06T06:17:39;18.00;99.90
20200;DHT22;36284;37.236;-121.934;2023-08-06T06:20:07;18.00;99.90
20200;DHT22;36284;37.236;-121.934;2023-08-06T06:22:34;18.00;99.90
20200;DHT22;36284;37.236;-121.934;2023-08-06T06:25:01;18.00;99.90
20200;DHT22;36284;37.236;-121.934;2023-08-06T06:27:28;17.90;99.90
20200;DHT22;36284;37.236;-121.934;2023-08-06T06:29:55;17.80;99.90
20200;DHT22;36284;37.236;-121.934;2023-08-06T06:32:22;17.90;99.90
20200;DHT22;36284;37.236;-121.934;2023-08-06T06:34:49;17.70;99.90
20200;DHT22;36284;37.236;-121.934;2023-08-06T06:37:16;17.70;99.90
20200;DHT22;36284;37.236;-121.934;2023-08-06T06:39:43;17.70;99.90
20200;DHT22;36284;37.236;-121.934;2023-08-06T06:42:11;17.70;99.90
20200;DHT22;36284;37.236;-121.934;2023-08-06T06:44:37;17.70;99.90
20200;DHT22;36284;37.236;-121.934;2023-08-06T06:47:04;17.60;99.90
20200;DHT22;36284;37.236;-121.934;2023-08-06T06:49:31;17.60;99.90
20200;DHT22;36284;37.236;-121.934;2023-08-06T06:51:58;17.60;99.90
20200;DHT22;36284;37.236;-121.934;2023-08-06T06:54:25;17.50;99.90
20200;DHT22;36284;37.236;-121.934;2023-08-06T06:56:52;17.30;99.90
20200;DHT22;36284;37.236;-121.934;2023-08-06T06:59:19;17.20;99.90
20200;DHT22;36284;37.236;-121.934;2023-08-06T07:01:46;17.20;99.90
20200;DHT22;36284;37.236;-121.934;2023-08-06T07:04:13;17.20;99.90
20200;DHT22;36284;37.236;-121.934;2023-08-06T07:06:40;17.30;99.90
20200;DHT22;36284;37.236;-121.934;2023-08-06T07:09:07;17.20;99.90
20200;DHT22;36284;37.236;-121.934;2023-08-06T07:11:34;17.20;99.90
20200;DHT22;36284;37.236;-121.934;2023-08-06T07:14:01;17.00;99.90
20200;DHT22;36284;37.236;-121.934;2023-08-06T07:16:28;16.90;99.90
20200;DHT22;36284;37.236;-121.934;2023-08-06T07:18:55;16.90;99.90
20200;DHT22;36284;37.236;-121.934;2023-08-06T07:21:22;17.00;99.90
20200;DHT22;36284;37.236;-121.934;2023-08-06T07:23:49;17.00;99.90
20200;DHT22;36284;37.236;-121.934;2023-08-06T07:26:17;17.00;99.90
20200;DHT22;36284;37.236;-121.934;2023-08-06T07:28:44;17.00;99.90
20200;DHT22;36284;37.236;-121.934;2023-08-06T07:31:11;16.90;99.90
20200;DHT22;36284;37.236;-121.934;2023-08-06T07:33:38;16.90;99.90
20200;DHT22;36284;37.236;-121.934;2023-08-06T07:36:10;17.00;99.90
20200;DHT22;36284;37.236;-121.934;2023-08-06T07:38:37;17.00;99.90
20200;DHT22;36284;37.236;-121.934;2023-08-06T07:41:05;16.80;99.90
20200;DHT22;36284;37.236;-121.934;2023-08-06T07:43:32;16.70;99.90
20200;DHT22;36284;37.236;-121.934;2023-08-06T07:45:59;16.70;99.90
20200;DHT22;36284;37.236;-121.934;2023-08-06T07:48:29;16.70;99.90
20200;DHT22;36284;37.236;-121.934;2023-08-06T07:50:57;16.70;99.90
20200;DHT22;36284;37.236;-121.934;2023-08-06T07:53:25;16.60;99.90
20200;DHT22;36284;37.236;-121.934;2023-08-06T07:55:58;16.50;99.90
20200;DHT22;36284;37.236;-121.934;2023-08-06T07:58:26;16.50;99.90
20200;DHT22;36284;37.236;-121.934;2023-08-06T08:00:53;16.50;99.90
20200;DHT22;36284;37.236;-121.934;2023-08-06T08:03:20;16.50;99.90
20200;DHT22;36284;37.236;-121.934;2023-08-06T08:05:47;16.50;99.90
20200;DHT22;36284;37.236;-121.934;2023-08-06T08:08:14;16.40;99.90
20200;DHT22;36284;37.236;-121.934;2023-08-06T08:10:41;16.40;99.90
20200;DHT22;36284;37.236;-121.934;2023-08-06T08:13:08;16.30;99.90
20200;DHT22;36284;37.236;-121.934;2023-08-06T08:15:36;16.30;99.90
20200;DHT22;36284;37.236;-121.934;2023-08-06T08:18:03;16.30;99.90
20200;DHT22;36284;37.236;-121.934;2023-08-06T08:20:30;16.40;99.90
20200;DHT22;36284;37.236;-121.934;2023-08-06T08:23:02;16.30;99.90
20200;DHT22;36284;37.236;-121.934;2023-08-06T08:25:29;16.30;99.90
20200;DHT22;36284;37.236;-121.934;2023-08-06T08:27:58;16.30;99.90
20200;DHT22;36284;37.236;-121.934;2023-08-06T08:30:25;16.40;99.90
20200;DHT22;36284;37.236;-121.934;2023-08-06T08:32:53;16.40;99.90
20200;DHT22;36284;37.236;-121.934;2023-08-06T08:35:20;16.40;99.90
20200;DHT22;36284;37.236;-121.934;2023-08-06T08:37:47;16.40;99.90
20200;DHT22;36284;37.236;-121.934;2023-08-06T08:40:15;16.40;99.90
20200;DHT22;36284;37.236;-121.934;2023-08-06T08:42:43;16.20;99.90
20200;DHT22;36284;37.236;-121.934;2023-08-06T08:45:14;16.20;99.90
20200;DHT22;36284;37.236;-121.934;2023-08-06T08:47:42;16.30;99.90
20200;DHT22;36284;37.236;-121.934;2023-08-06T08:50:10;16.40;99.90
20200;DHT22;36284;37.236;-121.934;2023-08-06T08:52:38;16.40;99.90
20200;DHT22;36284;37.236;-121.934;2023-08-06T08:55:07;16.30;99.90
20200;DHT22;36284;37.236;-121.934;2023-08-06T08:57:35;16.20;99.90
20200;DHT22;36284;37.236;-121.934;2023-08-06T09:00:03;16.20;99.90
20200;DHT22;36284;37.236;-121.934;2023-08-06T09:02:33;16.20;99.90
20200;DHT22;36284;37.236;-121.934;2023-08-06T09:05:01;16.10;99.90
20200;DHT22;36284;37.236;-121.934;2023-08-06T09:07:35;16.10;99.90
20200;DHT22;36284;37.236;-121.934;2023-08-06T09:10:07;16.10;99.90
20200;DHT22;36284;37.236;-121.934;2023-08-06T09:12:37;16.10;99.90
20200;DHT22;36284;37.236;-121.934;2023-08-06T09:15:04;16.10;99.90
20200;DHT22;36284;37.236;-121.934;2023-08-06T09:17:31;16.10;99.90
20200;DHT22;36284;37.236;-121.934;2023-08-06T09:19:58;16.00;99.90
20200;DHT22;36284;37.236;-121.934;2023-08-06T09:22:34;15.90;99.90
20200;DHT22;36284;37.236;-121.934;2023-08-06T09:25:05;16.00;99.90
20200;DHT22;36284;37.236;-121.934;2023-08-06T09:27:37;16.00;99.90
20200;DHT22;36284;37.236;-121.934;2023-08-06T09:30:08;15.90;99.90
20200;DHT22;36284;37.236;-121.934;2023-08-06T09:32:46;15.90;99.90
20200;DHT22;36284;37.236;-121.934;2023-08-06T09:35:17;16.00;99.90
20200;DHT22;36284;37.236;-121.934;2023-08-06T09:37:45;16.00;99.90
20200;DHT22;36284;37.236;-121.934;2023-08-06T09:40:29;15.90;99.90
20200;DHT22;36284;37.236;-121.934;2023-08-06T09:42:57;15.90;99.90
20200;DHT22;36284;37.236;-121.934;2023-08-06T09:45:32;15.80;99.90
20200;DHT22;36284;37.236;-121.934;2023-08-06T09:48:01;15.80;99.90
20200;DHT22;36284;37.236;-121.934;2023-08-06T09:50:31;15.80;99.90
20200;DHT22;36284;37.236;-121.934;2023-08-06T09:52:59;15.70;99.90
20200;DHT22;36284;37.236;-121.934;2023-08-06T09:55:27;15.80;99.90
20200;DHT22;36284;37.236;-121.934;2023-08-06T09:57:54;15.70;99.90
20200;DHT22;36284;37.236;-121.934;2023-08-06T10:00:22;15.70;99.90
20200;DHT22;36284;37.236;-121.934;2023-08-06T10:02:50;15.70;99.90
20200;DHT22;36284;37.236;-121.934;2023-08-06T10:05:24;15.70;99.90
20200;DHT22;36284;37.236;-121.934;2023-08-06T10:07:51;15.80;99.90
20200;DHT22;36284;37.236;-121.934;2023-08-06T10:10:18;15.70;99.90
20200;DHT22;36284;37.236;-121.934;2023-08-06T10:12:55;15.80;99.90
20200;DHT22;36284;37.236;-121.934;2023-08-06T10:15:29;15.80;99.90
20200;DHT22;36284;37.236;-121.934;2023-08-06T10:17:58;15.80;99.90
20200;DHT22;36284;37.236;-121.934;2023-08-06T10:20:26;15.80;99.90
20200;DHT22;36284;37.236;-121.934;2023-08-06T10:23:06;15.70;99.90
20200;DHT22;36284;37.236;-121.934;2023-08-06T10:25:40;15.70;99.90
20200;DHT22;36284;37.236;-121.934;2023-08-06T10:28:11;15.70;99.90
20200;DHT22;36284;37.236;-121.934;2023-08-06T10:30:43;15.70;99.90
20200;DHT22;36284;37.236;-121.934;2023-08-06T10:33:11;15.60;99.90
20200;DHT22;36284;37.236;-121.934;2023-08-06T10:35:41;15.70;99.90
20200;DHT22;36284;37.236;-121.934;2023-08-06T10:38:13;15.60;99.90
20200;DHT22;36284;37.236;-121.934;2023-08-06T10:40:43;15.60;99.90
20200;DHT22;36284;37.236;-121.934;2023-08-06T10:43:32;15.60;99.90
20200;DHT22;36284;37.236;-121.934;2023-08-06T10:46:01;15.60;99.90
20200;DHT22;36284;37.236;-121.934;2023-08-06T10:48:33;15.60;99.90
20200;DHT22;36284;37.236;-121.934;2023-08-06T10:51:01;15.60;99.90
20200;DHT22;36284;37.236;-121.934;2023-08-06T10:53:29;15.70;99.90
20200;DHT22;36284;37.236;-121.934;2023-08-06T10:55:56;15.60;99.90
20200;DHT22;36284;37.236;-121.934;2023-08-06T10:58:23;15.60;99.90
20200;DHT22;36284;37.236;-121.934;2023-08-06T11:00:50;15.60;99.90
20200;DHT22;36284;37.236;-121.934;2023-08-06T11:03:17;15.60;99.90
20200;DHT22;36284;37.236;-121.934;2023-08-06T11:05:50;15.60;99.90
20200;DHT22;36284;37.236;-121.934;2023-08-06T11:08:30;15.50;99.90
20200;DHT22;36284;37.236;-121.934;2023-08-06T11:11:11;15.40;99.90
20200;DHT22;36284;37.236;-121.934;2023-08-06T11:13:43;15.40;99.90
20200;DHT22;36284;37.236;-121.934;2023-08-06T11:16:20;15.40;99.90
20200;DHT22;36284;37.236;-121.934;2023-08-06T11:18:49;15.40;99.90
20200;DHT22;36284;37.236;-121.934;2023-08-06T11:21:20;15.40;99.90
20200;DHT22;36284;37.236;-121.934;2023-08-06T11:23:47;15.40;99.90
20200;DHT22;36284;37.236;-121.934;2023-08-06T11:26:19;15.30;99.90
20200;DHT22;36284;37.236;-121.934;2023-08-06T11:28:46;15.20;99.90
20200;DHT22;36284;37.236;-121.934;2023-08-06T11:31:21;15.10;99.90
20200;DHT22;36284;37.236;-121.934;2023-08-06T11:33:50;15.10;99.90
20200;DHT22;36284;37.236;-121.934;2023-08-06T11:36:29;15.00;99.90
20200;DHT22;36284;37.236;-121.934;2023-08-06T11:38:58;15.00;99.90
20200;DHT22;36284;37.236;-121.934;2023-08-06T11:41:27;14.90;99.90
20200;DHT22;36284;37.236;-121.934;2023-08-06T11:43:54;14.90;99.90
20200;DHT22;36284;37.236;-121.934;2023-08-06T11:46:21;14.90;99.90
20200;DHT22;36284;37.236;-121.934;2023-08-06T11:48:56;14.90;99.90
20200;DHT22;36284;37.236;-121.934;2023-08-06T11:51:24;14.90;99.90
20200;DHT22;36284;37.236;-121.934;2023-08-06T11:53:58;14.80;99.90
20200;DHT22;36284;37.236;-121.934;2023-08-06T11:56:25;14.90;99.90
20200;DHT22;36284;37.236;-121.934;2023-08-06T11:58:53;15.00;99.90
20200;DHT22;36284;37.236;-121.934;2023-08-06T12:01:20;14.80;99.90
20200;DHT22;36284;37.236;-121.934;2023-08-06T12:03:48;14.80;99.90
20200;DHT22;36284;37.236;-121.934;2023-08-06T12:06:14;14.90;99.90
20200;DHT22;36284;37.236;-121.934;2023-08-06T12:08:41;14.90;99.90
20200;DHT22;36284;37.236;-121.934;2023-08-06T12:11:08;14.90;99.90
20200;DHT22;36284;37.236;-121.934;2023-08-06T12:13:35;14.90;99.90
20200;DHT22;36284;37.236;-121.934;2023-08-06T12:16:02;14.90;99.90
20200;DHT22;36284;37.236;-121.934;2023-08-06T12:18:29;14.90;99.90
20200;DHT22;36284;37.236;-121.934;2023-08-06T12:20:56;14.90;99.90
20200;DHT22;36284;37.236;-121.934;2023-08-06T12:23:24;14.80;99.90
20200;DHT22;36284;37.236;-121.934;2023-08-06T12:25:51;14.80;99.90
20200;DHT22;36284;37.236;-121.934;2023-08-06T12:28:17;14.80;99.90
20200;DHT22;36284;37.236;-121.934;2023-08-06T12:30:44;14.70;99.90
20200;DHT22;36284;37.236;-121.934;2023-08-06T12:33:12;14.70;99.90
20200;DHT22;36284;37.236;-121.934;2023-08-06T12:35:38;14.60;99.90
20200;DHT22;36284;37.236;-121.934;2023-08-06T12:38:05;14.60;99.90
20200;DHT22;36284;37.236;-121.934;2023-08-06T12:40:32;14.70;99.90
20200;DHT22;36284;37.236;-121.934;2023-08-06T12:42:59;14.70;99.90
20200;DHT22;36284;37.236;-121.934;2023-08-06T12:45:27;14.50;99.90
20200;DHT22;36284;37.236;-121.934;2023-08-06T12:47:53;14.50;99.90
20200;DHT22;36284;37.236;-121.934;2023-08-06T12:50:20;14.50;99.90
20200;DHT22;36284;37.236;-121.934;2023-08-06T12:52:47;14.50;99.90
20200;DHT22;36284;37.236;-121.934;2023-08-06T12:55:14;14.50;99.90
20200;DHT22;36284;37.236;-121.934;2023-08-06T12:57:41;14.60;99.90
20200;DHT22;36284;37.236;-121.934;2023-08-06T13:00:08;14.70;99.90
20200;DHT22;36284;37.236;-121.934;2023-08-06T13:02:35;14.70;99.90
20200;DHT22;36284;37.236;-121.934;2023-08-06T13:05:02;14.80;99.90
20200;DHT22;36284;37.236;-121.934;2023-08-06T13:07:32;14.70;99.90
20200;DHT22;36284;37.236;-121.934;2023-08-06T13:09:59;14.70;99.90
20200;DHT22;36284;37.236;-121.934;2023-08-06T13:12:25;14.70;99.90
20200;DHT22;36284;37.236;-121.934;2023-08-06T13:14:52;14.70;99.90
20200;DHT22;36284;37.236;-121.934;2023-08-06T13:17:21;14.80;99.90
20200;DHT22;36284;37.236;-121.934;2023-08-06T13:19:48;14.70;99.90
20200;DHT22;36284;37.236;-121.934;2023-08-06T13:22:15;14.70;99.90
20200;DHT22;36284;37.236;-121.934;2023-08-06T13:24:42;14.90;99.90
20200;DHT22;36284;37.236;-121.934;2023-08-06T13:27:09;14.90;99.90
20200;DHT22;36284;37.236;-121.934;2023-08-06T13:29:36;14.80;99.90
20200;DHT22;36284;37.236;-121.934;2023-08-06T13:32:04;14.80;99.90
20200;DHT22;36284;37.236;-121.934;2023-08-06T13:34:31;15.00;99.90
20200;DHT22;36284;37.236;-121.934;2023-08-06T13:36:57;15.00;99.90
20200;DHT22;36284;37.236;-121.934;2023-08-06T13:39:24;15.10;99.90
20200;DHT22;36284;37.236;-121.934;2023-08-06T13:41:51;15.20;99.90
20200;DHT22;36284;37.236;-121.934;2023-08-06T13:44:18;15.30;99.90
20200;DHT22;36284;37.236;-121.934;2023-08-06T13:46:45;15.40;99.90
20200;DHT22;36284;37.236;-121.934;2023-08-06T13:49:13;15.50;99.90
20200;DHT22;36284;37.236;-121.934;2023-08-06T13:51:40;15.70;99.90
20200;DHT22;36284;37.236;-121.934;2023-08-06T13:54:06;15.80;99.90
20200;DHT22;36284;37.236;-121.934;2023-08-06T13:56:35;16.30;99.90
20200;DHT22;36284;37.236;-121.934;2023-08-06T13:59:03;16.50;99.90
20200;DHT22;36284;37.236;-121.934;2023-08-06T14:01:31;16.50;99.90
20200;DHT22;36284;37.236;-121.934;2023-08-06T14:03:57;16.70;99.90
20200;DHT22;36284;37.236;-121.934;2023-08-06T14:06:24;16.90;99.90
20200;DHT22;36284;37.236;-121.934;2023-08-06T14:08:52;17.60;99.90
20200;DHT22;36284;37.236;-121.934;2023-08-06T14:11:18;18.80;99.90
20200;DHT22;36284;37.236;-121.934;2023-08-06T14:13:45;19.10;99.90
20200;DHT22;36284;37.236;-121.934;2023-08-06T14:16:12;18.20;99.90
20200;DHT22;36284;37.236;-121.934;2023-08-06T14:18:39;18.10;99.90
20200;DHT22;36284;37.236;-121.934;2023-08-06T14:21:07;18.10;99.90
20200;DHT22;36284;37.236;-121.934;2023-08-06T14:23:34;18.30;99.90
20200;DHT22;36284;37.236;-121.934;2023-08-06T14:26:01;18.40;99.90
20200;DHT22;36284;37.236;-121.934;2023-08-06T14:28:28;19.30;99.90
20200;DHT22;36284;37.236;-121.934;2023-08-06T14:30:55;19.90;99.90
20200;DHT22;36284;37.236;-121.934;2023-08-06T14:33:22;20.70;99.90
20200;DHT22;36284;37.236;-121.934;2023-08-06T14:35:49;21.60;99.90
20200;DHT22;36284;37.236;-121.934;2023-08-06T14:40:44;22.70;99.90
20200;DHT22;36284;37.236;-121.934;2023-08-06T14:43:11;23.30;99.90
20200;DHT22;36284;37.236;-121.934;2023-08-06T14:45:39;21.90;99.90
20200;DHT22;36284;37.236;-121.934;2023-08-06T14:48:06;23.00;99.90
20200;DHT22;36284;37.236;-121.934;2023-08-06T14:50:33;24.30;99.90
20200;DHT22;36284;37.236;-121.934;2023-08-06T14:53:01;23.80;99.90
20200;DHT22;36284;37.236;-121.934;2023-08-06T14:55:30;23.50;99.90
20200;DHT22;36284;37.236;-121.934;2023-08-06T14:57:57;22.40;99.90
20200;DHT22;36284;37.236;-121.934;2023-08-06T15:00:24;22.70;99.90
20200;DHT22;36284;37.236;-121.934;2023-08-06T15:02:51;22.90;99.90
20200;DHT22;36284;37.236;-121.934;2023-08-06T15:05:17;23.30;99.90
20200;DHT22;36284;37.236;-121.934;2023-08-06T15:07:44;22.00;99.90